Terminal Aerodrome Forecast
Issued by NWS

Home | Current Version | Previous Version | Text Only | Print | Product List | Glossary On
Versions: 1 2 3 4 5 6 7 8 9 10 11 12 13 14 15 16 17 18 19 20
000
FTUS43 KLSX 201026 AAA
TAFUIN
TAF AMD
KUIN 201026Z 2010/2106 14007KT 6SM -SHRA VCTS OVC008CB
      TEMPO 2010/2011 4SM -TSRA OVC015CB
     FM201200 14010G18KT P6SM VCSH OVC008
     FM201600 15010G18KT P6SM VCSH BKN020
     FM201800 18011G19KT P6SM VCSH OVC045
     FM202300 24012G18KT P6SM BKN250=

USA.gov is the U.S. government's official web portal to all federal, state and local government web resources and services.